Time;durP1;ratioP1;P1;durP2;ratioP2;P2;SDS_P1;SDS_P2;PMS_P1;PMS_P2;Temp;Humidity;BMP_temperature;BMP_pressure;BME280_temperature;BME280_humidity;BME280_pressure;Samples;Min_cycle;Max_cycle;Signal;HPM_P1;HPM_P2
2022/01/01 00:02:16;;;;;;;25.40;18.83;;;12.60;99.90;;;;;;5090149;28;20240;-75
2022/01/01 00:04:42;;;;;;;20.13;15.00;;;12.60;99.90;;;;;;5091345;28;20187;-80
2022/01/01 00:07:11;;;;;;;17.30;13.30;;;12.50;99.90;;;;;;5094737;28;20269;-79
2022/01/01 00:09:38;;;;;;;18.90;14.80;;;12.50;99.90;;;;;;5088302;28;20220;-79
2022/01/01 00:12:05;;;;;;;20.80;15.20;;;12.50;99.90;;;;;;5070754;28;20173;-79
2022/01/01 00:14:31;;;;;;;28.23;18.13;;;12.50;99.90;;;;;;5073711;28;20177;-79
2022/01/01 00:16:57;;;;;;;27.70;19.03;;;12.50;99.90;;;;;;5088974;28;20200;-79
2022/01/01 00:19:23;;;;;;;32.17;21.17;;;12.50;99.90;;;;;;5073846;28;20192;-79
2022/01/01 00:21:49;;;;;;;28.20;17.47;;;12.40;99.90;;;;;;5087417;28;20176;-79
2022/01/01 00:24:14;;;;;;;27.73;19.10;;;12.40;99.90;;;;;;5090551;28;20195;-79
2022/01/01 00:26:40;;;;;;;22.30;16.67;;;12.40;99.90;;;;;;5073753;28;20220;-79
2022/01/01 00:29:06;;;;;;;29.83;19.93;;;12.40;99.90;;;;;;5104235;28;20208;-79
2022/01/01 00:31:32;;;;;;;23.83;17.20;;;12.40;99.90;;;;;;5091398;28;20687;-80
2022/01/01 00:33:59;;;;;;;29.43;20.27;;;12.40;99.90;;;;;;5091948;28;20212;-79
2022/01/01 00:36:28;;;;;;;24.90;17.53;;;12.40;99.90;;;;;;5088848;28;20205;-79
2022/01/01 00:38:55;;;;;;;28.57;17.97;;;12.40;99.90;;;;;;5076695;28;20184;-79
2022/01/01 00:41:21;;;;;;;18.13;14.53;;;12.40;99.90;;;;;;5091223;28;20275;-79
2022/01/01 00:43:47;;;;;;;22.23;15.97;;;12.40;99.90;;;;;;5090816;28;20202;-79
2022/01/01 00:46:13;;;;;;;21.23;16.10;;;12.40;99.90;;;;;;5074251;28;20643;-80
2022/01/01 00:48:38;;;;;;;22.50;16.40;;;12.40;99.90;;;;;;5090823;28;20204;-79
2022/01/01 00:51:04;;;;;;;20.87;15.43;;;12.40;99.90;;;;;;5094860;28;20172;-79
2022/01/01 00:53:30;;;;;;;19.97;14.17;;;12.40;99.90;;;;;;5088451;28;20188;-80
2022/01/01 00:55:57;;;;;;;21.60;15.20;;;12.30;99.90;;;;;;5091097;28;20185;-79
2022/01/01 00:58:24;;;;;;;16.63;12.97;;;12.40;99.90;;;;;;5091422;28;20505;-80
2022/01/01 01:00:49;;;;;;;21.77;14.23;;;12.40;99.90;;;;;;5079559;28;20185;-80
2022/01/01 01:03:17;;;;;;;23.70;16.63;;;12.40;99.90;;;;;;5070782;28;20262;-80
2022/01/01 01:05:45;;;;;;;19.50;14.73;;;12.40;99.90;;;;;;5075111;28;20261;-79
2022/01/01 01:08:14;;;;;;;19.30;14.57;;;12.40;99.90;;;;;;5096559;28;20208;-79
2022/01/01 01:10:43;;;;;;;17.83;14.43;;;12.40;99.90;;;;;;5099360;28;20172;-79
2022/01/01 01:13:09;;;;;;;18.10;14.83;;;12.40;99.90;;;;;;5098119;28;20208;-79
2022/01/01 01:15:36;;;;;;;19.90;15.50;;;12.40;99.90;;;;;;5099790;28;20180;-80
2022/01/01 01:18:04;;;;;;;18.23;14.80;;;12.40;99.90;;;;;;5077021;28;20571;-80
2022/01/01 01:20:30;;;;;;;19.73;15.67;;;12.40;99.90;;;;;;5092194;28;20648;-80
2022/01/01 01:22:56;;;;;;;21.33;15.77;;;12.30;99.90;;;;;;5090224;28;20185;-80
2022/01/01 01:25:25;;;;;;;20.90;15.27;;;12.30;99.90;;;;;;5091133;28;20203;-80
2022/01/01 01:27:51;;;;;;;19.27;14.70;;;12.30;99.90;;;;;;5074295;28;20204;-80
2022/01/01 01:30:18;;;;;;;21.33;15.17;;;12.30;99.90;;;;;;5073349;28;20708;-79
2022/01/01 01:32:45;;;;;;;19.43;14.47;;;12.30;99.90;;;;;;5072331;28;20184;-79
2022/01/01 01:35:13;;;;;;;17.43;14.17;;;12.30;99.90;;;;;;5077718;28;20196;-79
2022/01/01 01:37:39;;;;;;;19.10;14.67;;;12.20;99.90;;;;;;5095361;28;20204;-80
2022/01/01 01:40:07;;;;;;;16.73;14.40;;;12.30;99.90;;;;;;5078457;28;20184;-80
2022/01/01 01:42:34;;;;;;;17.47;14.20;;;12.30;99.90;;;;;;5094809;28;20204;-80
2022/01/01 01:45:05;;;;;;;17.40;13.63;;;12.30;99.90;;;;;;5094707;28;20181;-80
2022/01/01 01:47:37;;;;;;;18.70;13.43;;;12.30;99.90;;;;;;5061354;28;20223;-80
2022/01/01 01:50:06;;;;;;;15.33;12.93;;;12.30;99.90;;;;;;5094084;28;20208;-80
2022/01/01 01:52:35;;;;;;;16.03;12.30;;;12.30;99.90;;;;;;5094705;28;20204;-80
2022/01/01 01:55:04;;;;;;;16.17;12.40;;;12.20;99.90;;;;;;5077559;28;20222;-80
2022/01/01 01:57:30;;;;;;;17.37;12.20;;;12.30;99.90;;;;;;5077866;28;20253;-80
2022/01/01 01:59:56;;;;;;;16.67;12.47;;;12.20;99.90;;;;;;5094851;28;20207;-80
2022/01/01 02:02:22;;;;;;;16.30;12.10;;;12.30;99.90;;;;;;5077127;28;20292;-80
2022/01/01 02:04:48;;;;;;;16.67;12.50;;;12.30;99.90;;;;;;5060548;28;20195;-79
2022/01/01 02:07:14;;;;;;;14.33;11.37;;;12.20;99.90;;;;;;5093483;28;20250;-80
2022/01/01 02:09:39;;;;;;;14.20;11.07;;;12.20;99.90;;;;;;5095589;28;20258;-80
2022/01/01 02:12:07;;;;;;;12.60;10.77;;;12.30;99.90;;;;;;5095108;28;20169;-80
2022/01/01 02:17:22;;;;;;;12.87;10.27;;;12.30;99.90;;;;;;5094920;28;20455;-80
2022/01/01 02:20:01;;;;;;;11.67;9.30;;;12.30;99.90;;;;;;5094151;28;20713;-80
2022/01/01 02:22:44;;;;;;;14.47;10.83;;;12.30;99.90;;;;;;5093862;28;20184;-80
2022/01/01 02:25:10;;;;;;;13.77;10.13;;;12.30;99.90;;;;;;5074235;28;20207;-80
2022/01/01 02:27:36;;;;;;;12.03;9.43;;;12.30;99.90;;;;;;5092472;28;20746;-79
2022/01/01 02:30:05;;;;;;;12.40;9.50;;;12.30;99.90;;;;;;5094076;28;20201;-80
2022/01/01 02:32:31;;;;;;;13.77;10.27;;;12.30;99.90;;;;;;5072348;28;20181;-79
2022/01/01 02:34:56;;;;;;;12.77;9.80;;;12.30;99.90;;;;;;5073483;28;20188;-79
2022/01/01 02:37:22;;;;;;;12.70;9.83;;;12.30;99.90;;;;;;5093612;28;20215;-80
2022/01/01 02:39:50;;;;;;;10.87;9.17;;;12.20;99.90;;;;;;5060861;28;20185;-79
2022/01/01 02:42:20;;;;;;;12.53;8.90;;;12.30;99.90;;;;;;5083888;28;20199;-77
2022/01/01 02:44:46;;;;;;;10.10;8.70;;;12.20;99.90;;;;;;5088243;28;20176;-78
2022/01/01 02:47:12;;;;;;;10.90;8.80;;;12.30;99.90;;;;;;5082558;28;20325;-79
2022/01/01 02:49:38;;;;;;;11.30;8.67;;;12.30;99.90;;;;;;5074704;28;20275;-78
2022/01/01 02:52:04;;;;;;;12.00;9.03;;;12.30;99.90;;;;;;5095668;28;20187;-78
2022/01/01 02:54:29;;;;;;;11.90;8.47;;;12.30;99.90;;;;;;5095067;28;20169;-78
2022/01/01 02:56:55;;;;;;;11.27;8.80;;;12.20;99.90;;;;;;5096817;28;20227;-78
2022/01/01 02:59:21;;;;;;;11.90;9.13;;;12.30;99.90;;;;;;5095477;28;20549;-78
2022/01/01 03:01:47;;;;;;;10.27;7.93;;;12.20;99.90;;;;;;5094704;28;20176;-78
2022/01/01 03:04:12;;;;;;;10.37;7.90;;;12.30;99.90;;;;;;5095529;28;20196;-78
2022/01/01 03:06:38;;;;;;;10.73;8.17;;;12.30;99.90;;;;;;5106308;28;20665;-78
2022/01/01 03:09:04;;;;;;;10.23;8.10;;;12.30;99.90;;;;;;5100045;28;20230;-78
2022/01/01 03:11:30;;;;;;;9.87;8.07;;;12.30;99.90;;;;;;5092185;28;20196;-79
2022/01/01 03:13:56;;;;;;;12.70;7.57;;;12.30;99.90;;;;;;5075605;28;20185;-78
2022/01/01 03:16:21;;;;;;;10.77;7.83;;;12.30;99.90;;;;;;5094349;28;20213;-78
2022/01/01 03:18:47;;;;;;;11.03;7.97;;;12.30;99.90;;;;;;5100339;28;20184;-78
2022/01/01 03:21:13;;;;;;;10.97;7.70;;;12.30;99.90;;;;;;5089687;28;20178;-78
2022/01/01 03:23:39;;;;;;;12.43;7.87;;;12.30;99.90;;;;;;5098455;28;20206;-79
2022/01/01 03:26:05;;;;;;;9.30;7.70;;;12.30;99.90;;;;;;5095497;28;20192;-79
2022/01/01 03:28:31;;;;;;;10.60;7.47;;;12.30;99.90;;;;;;5087007;28;20212;-79
2022/01/01 03:30:58;;;;;;;9.97;7.00;;;12.30;99.90;;;;;;5097044;28;20177;-79
2022/01/01 03:33:24;;;;;;;8.90;7.40;;;12.30;99.90;;;;;;5098260;28;20173;-79
2022/01/01 03:35:50;;;;;;;9.23;7.33;;;12.30;99.90;;;;;;5060109;28;20701;-79
2022/01/01 03:38:17;;;;;;;7.87;6.33;;;12.30;99.90;;;;;;5095112;28;20251;-79
2022/01/01 03:40:43;;;;;;;10.00;7.47;;;12.30;99.90;;;;;;5089763;28;20659;-79
2022/01/01 03:43:09;;;;;;;9.67;7.13;;;12.30;99.90;;;;;;5057636;28;20180;-79
2022/01/01 03:45:36;;;;;;;10.20;7.37;;;12.40;99.90;;;;;;5096619;28;20200;-79
2022/01/01 03:48:05;;;;;;;8.33;6.97;;;12.40;99.90;;;;;;5097705;28;20285;-79
2022/01/01 03:50:30;;;;;;;8.73;6.93;;;12.40;99.90;;;;;;5081935;28;20208;-78
2022/01/01 03:52:56;;;;;;;8.37;6.67;;;12.30;99.90;;;;;;5098476;28;20177;-78
2022/01/01 03:55:22;;;;;;;11.03;6.90;;;12.30;99.90;;;;;;5095546;28;20271;-79
2022/01/01 03:57:47;;;;;;;9.83;7.43;;;12.30;99.90;;;;;;5081233;28;20202;-79
2022/01/01 04:00:14;;;;;;;9.10;7.10;;;12.30;99.90;;;;;;5100192;28;20177;-79
2022/01/01 04:02:40;;;;;;;10.80;7.60;;;12.30;99.90;;;;;;5101470;28;20187;-78
2022/01/01 04:05:06;;;;;;;8.93;6.87;;;12.30;99.90;;;;;;5095880;28;20176;-78
2022/01/01 04:07:33;;;;;;;10.63;7.60;;;12.30;99.90;;;;;;5091383;28;20216;-78
2022/01/01 04:09:59;;;;;;;9.23;6.80;;;12.30;99.90;;;;;;5098933;28;20223;-78
2022/01/01 04:12:25;;;;;;;9.70;6.93;;;12.20;99.90;;;;;;5072343;28;20670;-78
2022/01/01 04:14:51;;;;;;;8.67;6.70;;;12.30;99.90;;;;;;5098973;28;20202;-78
2022/01/01 04:17:17;;;;;;;8.60;6.83;;;12.30;99.90;;;;;;5097421;28;20266;-78
2022/01/01 04:19:43;;;;;;;7.90;6.70;;;12.30;99.90;;;;;;5078571;28;20195;-78
2022/01/01 04:22:11;;;;;;;9.07;6.63;;;12.30;99.90;;;;;;5098239;28;20168;-78
2022/01/01 04:24:38;;;;;;;8.60;6.10;;;12.20;99.90;;;;;;5098249;28;20188;-78
2022/01/01 04:27:04;;;;;;;8.83;6.30;;;12.20;99.90;;;;;;5098380;28;20200;-78
2022/01/01 04:29:31;;;;;;;7.30;6.50;;;12.30;99.90;;;;;;5096763;28;20220;-78
2022/01/01 04:31:57;;;;;;;8.60;6.33;;;12.20;99.90;;;;;;5096873;28;20181;-78
2022/01/01 04:34:23;;;;;;;10.00;6.90;;;12.30;99.90;;;;;;5077453;28;20216;-78
2022/01/01 04:37:02;;;;;;;9.33;6.77;;;12.30;99.90;;;;;;5090282;28;20283;-79
2022/01/01 04:39:28;;;;;;;8.60;6.80;;;12.20;99.90;;;;;;5074098;28;20215;-79
2022/01/01 04:41:54;;;;;;;8.97;7.03;;;12.20;99.90;;;;;;5094683;28;20544;-78
2022/01/01 04:44:20;;;;;;;9.80;7.33;;;12.20;99.90;;;;;;5095014;28;20173;-78
2022/01/01 04:46:45;;;;;;;8.60;7.00;;;12.20;99.90;;;;;;5095114;28;20533;-78
2022/01/01 04:49:11;;;;;;;8.90;7.00;;;12.20;99.90;;;;;;5078083;28;20732;-78
2022/01/01 04:51:37;;;;;;;9.27;6.70;;;12.20;99.90;;;;;;5079089;28;20211;-78
2022/01/01 04:54:07;;;;;;;8.67;6.80;;;12.30;99.90;;;;;;5097074;28;20176;-78
2022/01/01 04:56:34;;;;;;;7.73;6.47;;;12.20;99.90;;;;;;5096670;28;20275;-78
2022/01/01 04:59:02;;;;;;;8.73;6.97;;;12.30;99.90;;;;;;5096456;28;20188;-78
2022/01/01 05:01:28;;;;;;;9.00;6.00;;;12.20;99.90;;;;;;5109023;28;20177;-78
2022/01/01 05:03:55;;;;;;;8.53;6.13;;;12.30;99.90;;;;;;5097666;28;20180;-78
2022/01/01 05:06:20;;;;;;;8.70;7.40;;;12.20;99.90;;;;;;5095827;28;20185;-78
2022/01/01 05:08:46;;;;;;;9.67;7.13;;;12.20;99.90;;;;;;5096213;28;20559;-79
2022/01/01 05:11:12;;;;;;;9.53;7.47;;;12.20;99.90;;;;;;5093159;28;20597;-78
2022/01/01 05:13:38;;;;;;;8.50;6.57;;;12.20;99.90;;;;;;5091784;28;20173;-78
2022/01/01 05:16:04;;;;;;;10.13;7.27;;;12.20;99.90;;;;;;5078422;28;20488;-78
2022/01/01 05:18:30;;;;;;;8.50;6.63;;;12.20;99.90;;;;;;5089822;28;20267;-78
2022/01/01 05:20:56;;;;;;;11.17;7.27;;;12.10;99.90;;;;;;5087469;28;20314;-78
2022/01/01 05:23:21;;;;;;;9.53;7.17;;;12.10;99.90;;;;;;5069594;28;20256;-78
2022/01/01 05:25:47;;;;;;;8.60;6.70;;;12.10;99.90;;;;;;5069534;28;20180;-79
2022/01/01 05:28:13;;;;;;;9.53;6.90;;;12.10;99.90;;;;;;5053476;28;20193;-78
2022/01/01 05:30:38;;;;;;;8.43;6.50;;;12.10;99.90;;;;;;5085111;28;20176;-78
2022/01/01 05:33:04;;;;;;;9.20;7.17;;;12.10;99.90;;;;;;5076115;28;20179;-78
2022/01/01 05:35:30;;;;;;;8.13;6.67;;;12.00;99.90;;;;;;5091947;28;20253;-78
2022/01/01 05:37:56;;;;;;;8.23;6.63;;;12.00;99.90;;;;;;5090661;28;20208;-78
2022/01/01 05:40:23;;;;;;;8.20;6.90;;;12.00;99.90;;;;;;5091420;28;20264;-78
2022/01/01 05:42:49;;;;;;;8.73;7.10;;;12.00;99.90;;;;;;5072471;28;20177;-78
2022/01/01 05:45:15;;;;;;;8.33;7.20;;;12.00;99.90;;;;;;5089707;28;20230;-79
2022/01/01 05:47:41;;;;;;;8.87;6.73;;;12.00;99.90;;;;;;5089378;28;20711;-79
2022/01/01 05:50:07;;;;;;;8.97;7.07;;;12.00;99.90;;;;;;5096564;28;20204;-78
2022/01/01 05:52:33;;;;;;;8.67;6.40;;;12.00;99.90;;;;;;5071460;28;20532;-78
2022/01/01 05:54:59;;;;;;;11.40;7.33;;;12.00;99.90;;;;;;5086639;28;20178;-78
2022/01/01 05:57:24;;;;;;;9.60;6.80;;;12.00;99.90;;;;;;5091980;28;20277;-78
2022/01/01 05:59:50;;;;;;;9.10;6.60;;;11.90;99.90;;;;;;5090503;28;20187;-79
2022/01/01 06:02:16;;;;;;;7.43;6.10;;;11.90;99.90;;;;;;5091258;28;20529;-79
2022/01/01 06:04:41;;;;;;;8.33;6.37;;;12.00;99.90;;;;;;5090811;28;20589;-79
2022/01/01 06:07:08;;;;;;;6.90;5.90;;;12.00;99.90;;;;;;5088712;28;20192;-79
2022/01/01 06:09:34;;;;;;;8.27;6.43;;;12.00;99.90;;;;;;5091064;28;20215;-79
2022/01/01 06:11:59;;;;;;;8.90;6.80;;;12.00;99.90;;;;;;5089684;28;20659;-79
2022/01/01 06:14:25;;;;;;;9.17;6.90;;;12.00;99.90;;;;;;5090363;28;20196;-79
2022/01/01 06:16:51;;;;;;;8.60;6.97;;;12.00;99.90;;;;;;5091952;28;20207;-80
2022/01/01 06:19:17;;;;;;;9.40;6.77;;;12.00;99.90;;;;;;5090913;28;20184;-79
2022/01/01 06:21:43;;;;;;;9.07;6.50;;;12.00;99.90;;;;;;5081318;28;20267;-79
2022/01/01 06:24:09;;;;;;;9.60;7.03;;;12.00;99.90;;;;;;5073533;28;20192;-79
2022/01/01 06:26:34;;;;;;;9.47;7.57;;;12.00;99.90;;;;;;5091454;28;20196;-79
2022/01/01 06:29:01;;;;;;;10.47;8.00;;;12.00;99.90;;;;;;5088682;28;20218;-79
2022/01/01 06:31:26;;;;;;;9.17;7.67;;;12.00;99.90;;;;;;5094898;28;20177;-79
2022/01/01 06:33:52;;;;;;;12.83;8.27;;;12.00;99.90;;;;;;5081502;28;20493;-79
2022/01/01 06:36:18;;;;;;;10.83;8.20;;;12.00;99.90;;;;;;5095884;28;20180;-79
2022/01/01 06:38:45;;;;;;;12.77;8.50;;;12.00;99.90;;;;;;5066813;28;20184;-79
2022/01/01 06:41:12;;;;;;;11.00;8.57;;;12.00;99.90;;;;;;5100248;28;20206;-79
2022/01/01 06:43:38;;;;;;;11.33;8.47;;;12.00;99.90;;;;;;5097390;28;20200;-79
2022/01/01 06:46:08;;;;;;;11.30;8.53;;;12.00;99.90;;;;;;5096248;28;20184;-79
2022/01/01 06:48:34;;;;;;;11.10;8.57;;;12.00;99.90;;;;;;5093318;28;20303;-79
2022/01/01 06:51:01;;;;;;;12.67;9.80;;;12.00;99.90;;;;;;5081193;28;20256;-79
2022/01/01 06:53:26;;;;;;;12.47;8.77;;;12.00;99.90;;;;;;5093270;28;20660;-78
2022/01/01 06:55:52;;;;;;;11.77;9.20;;;11.90;99.90;;;;;;5095120;28;20191;-79
2022/01/01 06:58:18;;;;;;;11.27;9.03;;;11.90;99.90;;;;;;5093998;28;20200;-79
2022/01/01 07:00:44;;;;;;;14.47;9.03;;;11.90;99.90;;;;;;5091764;28;20665;-79
2022/01/01 07:03:10;;;;;;;12.87;9.23;;;12.00;99.90;;;;;;5053431;28;20659;-79
2022/01/01 07:05:36;;;;;;;13.43;9.47;;;12.00;99.90;;;;;;5062530;28;20176;-79
2022/01/01 07:08:01;;;;;;;11.57;8.63;;;11.90;99.90;;;;;;5096575;28;20209;-79
2022/01/01 07:10:27;;;;;;;13.43;9.00;;;11.90;99.90;;;;;;5072557;28;20213;-79
2022/01/01 07:12:53;;;;;;;13.03;8.43;;;12.00;99.90;;;;;;5082895;28;20172;-79
2022/01/01 07:15:19;;;;;;;12.60;9.57;;;12.00;99.90;;;;;;5090976;28;20173;-79
2022/01/01 07:17:44;;;;;;;12.70;8.90;;;12.00;99.90;;;;;;5074240;28;20255;-79
2022/01/01 07:20:11;;;;;;;13.93;9.83;;;11.90;99.90;;;;;;5075146;28;20550;-79
2022/01/01 07:22:41;;;;;;;12.97;9.43;;;11.90;99.90;;;;;;5079625;28;20288;-79
2022/01/01 07:25:08;;;;;;;15.30;12.00;;;11.90;99.90;;;;;;5110832;28;20187;-79
2022/01/01 07:27:34;;;;;;;14.63;10.80;;;11.90;99.90;;;;;;5100719;28;20606;-79
2022/01/01 07:30:00;;;;;;;14.73;10.80;;;11.90;99.90;;;;;;5081566;28;20326;-79
2022/01/01 07:32:26;;;;;;;15.70;10.47;;;11.90;99.90;;;;;;5067080;28;20196;-79
2022/01/01 07:34:52;;;;;;;14.33;10.20;;;11.90;99.90;;;;;;5102903;28;20221;-79
2022/01/01 07:37:17;;;;;;;13.93;9.63;;;11.90;99.90;;;;;;5082865;28;20688;-80
2022/01/01 07:39:43;;;;;;;13.63;8.93;;;11.90;99.90;;;;;;5089540;28;20184;-77
2022/01/01 07:42:09;;;;;;;12.60;9.10;;;11.90;99.90;;;;;;5086901;28;20607;-74
2022/01/01 07:44:35;;;;;;;19.47;14.03;;;11.90;99.90;;;;;;5081959;28;20588;-77
2022/01/01 07:47:01;;;;;;;14.13;10.60;;;11.90;99.90;;;;;;5090107;28;20208;-80
2022/01/01 07:49:26;;;;;;;17.40;13.63;;;11.90;99.90;;;;;;5089931;28;20212;-76
2022/01/01 07:51:52;;;;;;;16.57;11.50;;;11.90;99.90;;;;;;5089053;28;20237;-76
2022/01/01 07:54:18;;;;;;;17.03;11.00;;;12.00;99.90;;;;;;5087896;28;20193;-76
2022/01/01 07:56:43;;;;;;;13.80;9.97;;;12.00;99.90;;;;;;5090706;28;20282;-76
2022/01/01 07:59:09;;;;;;;16.07;11.20;;;12.00;99.90;;;;;;5091115;28;20194;-75
2022/01/01 08:01:36;;;;;;;14.57;9.77;;;12.00;99.90;;;;;;5091207;28;20249;-76
2022/01/01 08:04:03;;;;;;;14.13;10.70;;;12.00;99.90;;;;;;5074085;28;20326;-75
2022/01/01 08:06:32;;;;;;;15.70;10.93;;;12.00;99.90;;;;;;5081421;28;20203;-76
2022/01/01 08:08:58;;;;;;;15.40;10.50;;;12.00;99.90;;;;;;5064790;28;20672;-75
2022/01/01 08:11:24;;;;;;;15.40;10.63;;;12.00;99.90;;;;;;5085397;28;20648;-75
2022/01/01 08:13:51;;;;;;;17.07;11.70;;;12.00;99.90;;;;;;5084560;28;20249;-75
2022/01/01 08:16:17;;;;;;;14.93;10.80;;;12.00;99.90;;;;;;5080212;28;20179;-76
2022/01/01 08:18:42;;;;;;;19.73;12.20;;;12.00;99.90;;;;;;5066976;28;20184;-75
2022/01/01 08:21:08;;;;;;;15.17;10.93;;;12.00;99.90;;;;;;5088879;28;20551;-75
2022/01/01 08:23:34;;;;;;;17.07;12.13;;;12.10;99.90;;;;;;5088323;28;20184;-75
2022/01/01 08:26:00;;;;;;;15.30;10.90;;;12.00;99.90;;;;;;5090276;28;20176;-75
2022/01/01 08:28:26;;;;;;;21.00;15.63;;;12.00;99.90;;;;;;5089979;28;20636;-75
2022/01/01 08:30:52;;;;;;;16.93;12.10;;;12.10;99.90;;;;;;5086110;28;20588;-76
2022/01/01 08:33:18;;;;;;;15.03;11.00;;;12.00;99.90;;;;;;5091106;28;20181;-76
2022/01/01 08:35:44;;;;;;;18.23;12.43;;;12.10;99.90;;;;;;5083149;28;20192;-76
2022/01/01 08:38:13;;;;;;;17.03;12.00;;;12.20;99.90;;;;;;5089154;28;20200;-77
2022/01/01 08:40:39;;;;;;;15.33;11.33;;;12.20;99.90;;;;;;5089979;28;20180;-76
2022/01/01 08:43:05;;;;;;;15.50;11.47;;;12.20;99.90;;;;;;5089531;28;20173;-76
2022/01/01 08:45:32;;;;;;;15.07;10.93;;;12.20;99.90;;;;;;5086656;28;20180;-75
2022/01/01 08:47:58;;;;;;;16.20;11.13;;;12.30;99.90;;;;;;5091122;28;20196;-75
2022/01/01 08:50:23;;;;;;;14.27;10.70;;;12.40;99.90;;;;;;5089718;28;20192;-75
2022/01/01 08:52:49;;;;;;;14.83;10.43;;;12.40;99.90;;;;;;5087502;28;20191;-76
2022/01/01 08:55:15;;;;;;;15.97;10.17;;;12.40;99.90;;;;;;5090527;28;20168;-77
2022/01/01 08:57:40;;;;;;;15.67;11.17;;;12.40;99.90;;;;;;5089804;28;20227;-73
2022/01/01 09:00:11;;;;;;;13.77;10.40;;;12.50;99.90;;;;;;5089410;28;20233;-74
2022/01/01 09:02:37;;;;;;;14.23;10.40;;;12.50;99.90;;;;;;5083372;28;20205;-73
2022/01/01 09:05:03;;;;;;;14.60;10.57;;;12.60;99.90;;;;;;5087616;28;20263;-73
2022/01/01 09:07:29;;;;;;;15.37;10.53;;;12.50;99.90;;;;;;5087938;28;20651;-73
2022/01/01 09:10:00;;;;;;;15.23;10.37;;;12.50;99.90;;;;;;5090551;28;20261;-73
2022/01/01 09:12:29;;;;;;;14.10;11.10;;;12.60;99.90;;;;;;5088108;28;20176;-72
2022/01/01 09:14:55;;;;;;;13.73;10.23;;;12.60;99.90;;;;;;5090002;28;20183;-73
2022/01/01 09:17:22;;;;;;;14.50;10.37;;;12.60;99.90;;;;;;5088371;28;20609;-72
2022/01/01 09:19:49;;;;;;;12.23;9.10;;;12.70;99.90;;;;;;5078138;28;20181;-72
2022/01/01 09:22:15;;;;;;;14.17;9.90;;;12.70;99.90;;;;;;5088841;28;20183;-73
2022/01/01 09:24:41;;;;;;;12.93;9.70;;;12.70;99.90;;;;;;5084898;28;20191;-72
2022/01/01 09:27:07;;;;;;;13.83;9.63;;;12.80;99.90;;;;;;5068140;28;20197;-72
2022/01/01 09:29:32;;;;;;;12.70;9.27;;;12.80;99.90;;;;;;5082747;28;20560;-72
2022/01/01 09:31:58;;;;;;;13.10;9.13;;;12.90;99.90;;;;;;5091980;28;20176;-72
2022/01/01 09:34:24;;;;;;;11.77;8.73;;;12.90;99.90;;;;;;5088745;28;20668;-72
2022/01/01 09:36:51;;;;;;;13.40;8.77;;;12.90;99.90;;;;;;5087094;28;20691;-72
2022/01/01 09:39:17;;;;;;;10.07;8.20;;;12.90;99.90;;;;;;5085015;28;20552;-72
2022/01/01 09:41:44;;;;;;;10.17;7.77;;;12.90;99.90;;;;;;5089402;28;20204;-72
2022/01/01 09:44:15;;;;;;;10.70;7.90;;;13.00;99.90;;;;;;5089854;28;20169;-72
2022/01/01 09:46:45;;;;;;;11.43;7.73;;;13.00;99.90;;;;;;5069920;28;20251;-72
2022/01/01 09:49:15;;;;;;;10.47;7.77;;;13.00;99.90;;;;;;5070047;28;20235;-72
2022/01/01 09:51:42;;;;;;;10.67;8.10;;;13.10;99.90;;;;;;5087932;28;20176;-72
2022/01/01 09:54:08;;;;;;;9.83;7.83;;;13.20;99.90;;;;;;5092054;28;20176;-72
2022/01/01 09:56:35;;;;;;;11.20;8.00;;;13.20;99.90;;;;;;5093816;28;20195;-72
2022/01/01 09:59:00;;;;;;;10.83;7.80;;;13.30;99.90;;;;;;5097136;28;20234;-72
2022/01/01 10:01:26;;;;;;;10.93;7.47;;;13.30;99.90;;;;;;5097430;28;20190;-72
2022/01/01 10:03:53;;;;;;;10.17;7.13;;;13.30;99.90;;;;;;5091222;28;20183;-71
2022/01/01 10:06:20;;;;;;;9.13;6.67;;;13.30;99.90;;;;;;5090389;28;20185;-72
2022/01/01 10:08:57;;;;;;;9.53;7.33;;;13.40;99.90;;;;;;5093654;28;20212;-71
2022/01/01 10:11:24;;;;;;;9.40;7.27;;;13.40;99.90;;;;;;5090365;28;20168;-71
2022/01/01 10:13:50;;;;;;;10.03;7.13;;;13.50;99.90;;;;;;5088341;28;20181;-71
2022/01/01 10:16:17;;;;;;;9.77;7.20;;;13.50;99.90;;;;;;5090986;28;20273;-72
2022/01/01 10:18:45;;;;;;;9.77;7.47;;;13.60;99.90;;;;;;5092101;28;20226;-71
2022/01/01 10:21:13;;;;;;;8.30;7.00;;;13.60;99.90;;;;;;5092319;28;20192;-75
2022/01/01 10:23:42;;;;;;;10.07;8.07;;;13.60;99.90;;;;;;5091758;28;20190;-73
2022/01/01 10:29:16;;;;;;;11.03;8.00;;;13.60;99.90;;;;;;5082407;28;20208;-72
2022/01/01 10:31:59;;;;;;;8.23;7.07;;;13.60;99.90;;;;;;5089042;28;20216;-72
2022/01/01 10:34:28;;;;;;;8.63;6.80;;;13.70;99.90;;;;;;5090934;28;20592;-72
2022/01/01 10:36:55;;;;;;;9.53;7.70;;;13.70;99.90;;;;;;5074364;28;20199;-72
2022/01/01 10:39:21;;;;;;;9.67;7.40;;;13.70;99.90;;;;;;5091188;28;20200;-72
2022/01/01 10:41:55;;;;;;;10.17;7.57;;;13.80;99.90;;;;;;5098988;28;20186;-72
2022/01/01 10:44:29;;;;;;;10.90;8.43;;;13.80;99.90;;;;;;5079917;28;20187;-72
2022/01/01 10:46:55;;;;;;;11.00;7.80;;;13.80;99.90;;;;;;5083963;28;20285;-72
2022/01/01 10:49:50;;;;;;;9.00;7.77;;;13.80;99.90;;;;;;5092447;28;20273;-73
2022/01/01 10:52:28;;;;;;;11.70;8.80;;;13.80;99.90;;;;;;5092768;28;20219;-72
2022/01/01 10:54:54;;;;;;;11.23;8.10;;;13.80;99.90;;;;;;5092935;28;20175;-73
2022/01/01 10:57:25;;;;;;;10.97;8.10;;;13.90;99.90;;;;;;5089359;28;20293;-72
2022/01/01 11:00:03;;;;;;;12.10;8.53;;;13.80;99.90;;;;;;5092523;28;20518;-73
2022/01/01 11:02:32;;;;;;;11.03;8.63;;;13.80;99.90;;;;;;5089580;28;20166;-73
2022/01/01 11:04:58;;;;;;;12.03;8.73;;;13.80;99.90;;;;;;5089082;28;20246;-73
2022/01/01 11:07:27;;;;;;;9.83;8.20;;;13.80;99.90;;;;;;5090339;28;20684;-72
2022/01/01 11:09:55;;;;;;;11.33;8.50;;;13.70;99.90;;;;;;5092492;28;20679;-73
2022/01/01 11:12:22;;;;;;;10.23;7.93;;;13.70;99.90;;;;;;5089795;28;20294;-73
2022/01/01 11:14:48;;;;;;;12.30;9.50;;;13.70;99.90;;;;;;5088855;28;20549;-73
2022/01/01 11:17:16;;;;;;;11.53;8.73;;;13.70;99.90;;;;;;5091619;28;20196;-72
2022/01/01 11:19:42;;;;;;;12.47;8.67;;;13.70;99.90;;;;;;5074408;28;20196;-72
2022/01/01 11:22:09;;;;;;;11.67;8.67;;;13.70;99.90;;;;;;5092545;28;20177;-73
2022/01/01 11:24:38;;;;;;;11.83;8.60;;;13.80;99.90;;;;;;5092527;28;20180;-73
2022/01/01 11:27:05;;;;;;;11.20;7.73;;;13.90;99.90;;;;;;5054278;28;20284;-73
2022/01/01 11:29:34;;;;;;;11.77;8.43;;;13.90;99.90;;;;;;5089777;28;20729;-73
2022/01/01 11:32:01;;;;;;;11.63;8.53;;;13.90;99.90;;;;;;5091610;28;20291;-73
2022/01/01 11:34:30;;;;;;;12.43;8.47;;;13.90;99.90;;;;;;5091319;28;20629;-73
2022/01/01 11:36:56;;;;;;;13.83;8.83;;;13.90;99.90;;;;;;5081168;28;20215;-73
2022/01/01 11:39:25;;;;;;;10.53;8.30;;;13.90;99.90;;;;;;5091484;28;20656;-73
2022/01/01 11:41:52;;;;;;;9.67;7.90;;;13.90;99.90;;;;;;5090305;28;20208;-73
2022/01/01 11:44:32;;;;;;;11.37;8.40;;;14.00;99.90;;;;;;5091989;28;20187;-73
2022/01/01 11:47:04;;;;;;;10.67;8.17;;;14.10;99.90;;;;;;5084487;28;20687;-73
2022/01/01 11:49:32;;;;;;;10.07;8.20;;;14.10;99.90;;;;;;5091788;28;20240;-73
2022/01/01 11:51:58;;;;;;;11.07;8.93;;;14.10;99.90;;;;;;5076351;28;20181;-73
2022/01/01 11:54:31;;;;;;;11.63;8.60;;;14.10;99.90;;;;;;5075766;28;20177;-73
2022/01/01 11:57:05;;;;;;;11.67;8.87;;;14.10;99.90;;;;;;5083784;28;20227;-73
2022/01/01 11:59:37;;;;;;;12.23;9.03;;;14.10;99.90;;;;;;5080430;28;20182;-73
2022/01/01 12:02:10;;;;;;;11.17;8.07;;;14.10;99.90;;;;;;5076892;28;20233;-73
2022/01/01 12:04:41;;;;;;;10.20;8.20;;;14.00;99.90;;;;;;5091637;28;20180;-73
2022/01/01 12:07:17;;;;;;;11.00;8.43;;;14.00;99.90;;;;;;5085537;28;20205;-73
2022/01/01 12:10:02;;;;;;;9.73;8.27;;;14.10;99.90;;;;;;5082612;28;20644;-73
2022/01/01 12:12:45;;;;;;;10.13;8.03;;;14.10;99.90;;;;;;5091104;28;20219;-73
2022/01/01 12:15:20;;;;;;;12.40;8.77;;;14.20;99.90;;;;;;5088481;28;20183;-74
2022/01/01 12:18:00;;;;;;;10.67;8.30;;;14.10;99.90;;;;;;5088143;28;20184;-73
2022/01/01 12:20:47;;;;;;;10.83;8.47;;;14.10;99.90;;;;;;5088109;28;20545;-73
2022/01/01 12:23:22;;;;;;;10.60;8.13;;;14.10;99.90;;;;;;5085288;28;20192;-73
2022/01/01 12:25:50;;;;;;;12.00;10.07;;;14.10;99.90;;;;;;5080400;28;20184;-73
2022/01/01 12:28:18;;;;;;;14.50;10.33;;;14.20;99.90;;;;;;5076051;28;20213;-73
2022/01/01 12:30:53;;;;;;;10.77;8.93;;;14.20;99.90;;;;;;5085669;28;20186;-73
2022/01/01 12:33:39;;;;;;;13.93;11.33;;;14.20;99.90;;;;;;5087264;28;20168;-73
2022/01/01 12:36:14;;;;;;;10.43;9.33;;;14.30;99.90;;;;;;5088253;28;20263;-73
2022/01/01 12:38:49;;;;;;;12.80;8.93;;;14.30;99.90;;;;;;5082580;28;20191;-73
2022/01/01 12:41:19;;;;;;;12.43;10.10;;;14.30;99.90;;;;;;5089141;28;20203;-73
2022/01/01 12:43:50;;;;;;;11.97;9.20;;;14.40;99.90;;;;;;5094694;28;20189;-73